Time;durP1;ratioP1;P1;durP2;ratioP2;P2;SDS_P1;SDS_P2;PMS_P1;PMS_P2;Temp;Humidity;BMP_temperature;BMP_pressure;BME280_temperature;BME280_humidity;BME280_pressure;Samples;Min_cycle;Max_cycle;Signal;HPM_P1;HPM_P2
2021/05/31 21:56:42;;;;;;;2.72;2.00;;;;;;;13.57;45.90;100019.81;3509759;27;20429;-79
2021/05/31 21:58:23;;;;;;;7.07;2.38;;;;;;;13.56;46.22;100014.69;3507778;28;20040;-79
2021/05/31 22:00:11;;;;;;;4.10;1.92;;;;;;;13.59;46.22;100017.78;3502977;28;20057;-77
2021/05/31 22:01:53;;;;;;;5.28;2.20;;;;;;;13.60;46.86;100022.09;3504348;28;20040;-78
2021/05/31 22:03:34;;;;;;;4.50;2.35;;;;;;;13.62;46.81;100011.19;3496013;28;20037;-79
2021/05/31 22:05:15;;;;;;;2.93;2.13;;;;;;;13.64;47.02;100009.94;3489430;28;20045;-75
2021/05/31 22:06:57;;;;;;;7.03;2.28;;;;;;;13.67;46.97;100009.53;3471718;28;20288;-75
2021/05/31 22:08:39;;;;;;;3.00;2.00;;;;;;;13.69;46.97;100012.81;3480868;28;20049;-76
2021/05/31 22:10:22;;;;;;;1.77;1.48;;;;;;;13.72;46.91;100011.59;3483127;28;20057;-77
2021/05/31 22:12:04;;;;;;;5.13;2.05;;;;;;;13.73;46.85;100005.19;3485502;28;20033;-76
2021/05/31 22:13:51;;;;;;;5.40;2.03;;;;;;;13.77;46.87;100009.09;3480906;28;20128;-76
2021/05/31 22:15:36;;;;;;;10.07;3.05;;;;;;;13.79;47.02;100012.41;3481354;28;20052;-78
2021/05/31 22:17:17;;;;;;;8.77;3.10;;;;;;;13.80;47.02;100003.31;3481116;28;20037;-76
2021/05/31 22:18:58;;;;;;;6.05;2.45;;;;;;;13.83;46.96;100002.91;3481999;28;20048;-76
2021/05/31 22:20:39;;;;;;;8.17;2.93;;;;;;;13.84;47.02;99998.41;3490726;28;20044;-77
2021/05/31 22:24:09;;;;;;;6.90;3.50;;;;;;;13.88;46.83;100008.47;3494197;28;20037;-75
2021/05/31 22:25:52;;;;;;;8.18;3.13;;;;;;;13.88;46.77;99999.63;3492143;28;20491;-74
2021/05/31 22:31:21;;;;;;;8.70;3.83;;;;;;;13.90;46.70;100003.72;3490984;28;20557;-76
2021/05/31 22:33:05;;;;;;;9.57;2.55;;;;;;;13.90;46.78;100001.06;3490283;28;20037;-76
2021/05/31 22:34:46;;;;;;;12.43;3.30;;;;;;;13.92;46.77;100000.84;3485119;28;20090;-77
2021/05/31 22:36:31;;;;;;;5.97;2.50;;;;;;;13.89;46.60;99999.41;3493919;28;20517;-76
2021/05/31 22:38:49;;;;;;;9.73;2.97;;;;;;;13.93;46.81;100003.31;3494287;28;20496;-78
2021/05/31 22:40:26;;;;;;;7.78;2.38;;;;;;;13.93;46.61;99997.94;3484948;28;20045;-76
2021/05/31 22:42:11;;;;;;;5.60;2.28;;;;;;;13.91;46.77;100000.03;3494450;28;20101;-76
2021/05/31 22:55:49;;;;;;;3.50;2.35;;;;;;;13.89;46.90;99999.41;3485682;28;20122;-77
2021/05/31 23:07:56;;;;;;;9.10;3.47;;;;;;;13.82;47.15;100000.47;3472961;28;20424;-76
2021/05/31 23:13:19;;;;;;;5.40;4.00;;;;;;;13.82;47.27;100006.63;3475215;28;20071;-75
2021/05/31 23:15:02;;;;;;;7.55;3.67;;;;;;;13.82;47.41;100006.63;3475634;28;20081;-75
2021/05/31 23:16:43;;;;;;;9.98;4.03;;;;;;;13.78;47.54;100005.38;3443641;28;20174;-76
2021/05/31 23:18:24;;;;;;;11.05;3.88;;;;;;;13.77;47.54;99995.72;3462606;28;20037;-75
2021/05/31 23:20:06;;;;;;;7.10;3.55;;;;;;;13.80;47.60;100013.22;3472822;28;20060;-75
2021/05/31 23:21:47;;;;;;;9.15;3.35;;;;;;;13.81;47.71;100015.72;3484547;28;20037;-78
2021/05/31 23:23:28;;;;;;;7.95;4.20;;;;;;;13.81;47.89;100010.34;3484623;28;20423;-80
2021/05/31 23:25:10;;;;;;;8.80;3.75;;;;;;;13.80;47.98;100007.88;3482567;28;20041;-78
2021/05/31 23:26:50;;;;;;;7.10;3.38;;;;;;;13.80;48.05;100011.38;3483973;28;20041;-79
2021/05/31 23:28:31;;;;;;;6.75;4.07;;;;;;;13.79;48.15;100012.41;3483638;28;20135;-75
2021/05/31 23:30:12;;;;;;;11.50;4.20;;;;;;;13.77;48.34;100002.94;3481354;28;20040;-79
2021/05/31 23:31:53;;;;;;;6.43;3.55;;;;;;;13.73;48.39;99999.81;3484193;28;20065;-77
2021/05/31 23:33:34;;;;;;;8.32;3.97;;;;;;;13.69;48.29;99998.63;3484567;28;20107;-81
2021/05/31 23:35:14;;;;;;;9.38;4.63;;;;;;;13.69;48.59;99996.75;3484533;28;20094;-79
2021/05/31 23:36:56;;;;;;;9.23;4.00;;;;;;;13.70;48.69;100009.09;3469563;28;20045;-80
2021/05/31 23:38:39;;;;;;;10.68;4.82;;;;;;;13.70;48.72;100006.41;3481614;28;20095;-79
2021/05/31 23:40:24;;;;;;;10.93;4.38;;;;;;;13.70;48.85;100006.41;3484679;28;20044;-80
2021/05/31 23:42:05;;;;;;;7.78;3.65;;;;;;;13.71;48.69;100009.94;3483598;28;20080;-80
2021/05/31 23:43:47;;;;;;;10.00;4.20;;;;;;;13.69;48.79;100012.00;3483953;28;20044;-78
2021/05/31 23:45:30;;;;;;;11.88;4.45;;;;;;;13.65;48.73;100000.88;3483994;28;20104;-80
2021/05/31 23:47:12;;;;;;;7.88;3.47;;;;;;;13.65;48.92;100010.75;3469757;28;20041;-78
2021/05/31 23:48:53;;;;;;;6.43;3.60;;;;;;;13.66;48.62;100007.06;3481676;28;20499;-80
2021/05/31 23:50:34;;;;;;;4.28;3.00;;;;;;;13.65;48.95;100008.06;3484101;28;20095;-76
2021/05/31 23:52:15;;;;;;;8.67;3.40;;;;;;;13.60;48.86;100003.34;3486024;28;20507;-75
2021/05/31 23:54:06;;;;;;;6.95;4.63;;;;;;;13.66;48.99;100007.88;3483182;28;20048;-76
2021/05/31 23:55:47;;;;;;;6.82;3.70;;;;;;;13.65;49.04;100008.06;3483475;28;20071;-77
2021/05/31 23:57:28;;;;;;;8.63;3.85;;;;;;;13.62;49.11;100005.81;3483710;28;20041;-75
2021/05/31 23:59:10;;;;;;;9.98;4.13;;;;;;;13.62;49.01;99998.59;3486132;28;20037;-76
